sensor_id;sensor_type;location;lat;lon;timestamp;P1;durP1;ratioP1;P2;durP2;ratioP2
80854;SDS011;70272;49.222;-122.892;2023-12-20T00:00:02;3.75;;;2.65;;
80854;SDS011;70272;49.222;-122.892;2023-12-20T00:02:28;5.13;;;2.28;;
80854;SDS011;70272;49.222;-122.892;2023-12-20T00:04:55;3.92;;;2.25;;
80854;SDS011;70272;49.222;-122.892;2023-12-20T00:07:21;6.40;;;2.80;;
80854;SDS011;70272;49.222;-122.892;2023-12-20T00:09:47;4.05;;;2.80;;
80854;SDS011;70272;49.222;-122.892;2023-12-20T00:12:14;8.45;;;5.25;;
80854;SDS011;70272;49.222;-122.892;2023-12-20T00:14:40;5.80;;;3.80;;
80854;SDS011;70272;49.222;-122.892;2023-12-20T00:17:06;5.20;;;3.35;;
80854;SDS011;70272;49.222;-122.892;2023-12-20T00:19:33;4.65;;;3.00;;
80854;SDS011;70272;49.222;-122.892;2023-12-20T00:21:59;5.25;;;2.90;;
80854;SDS011;70272;49.222;-122.892;2023-12-20T00:24:25;5.05;;;3.25;;
80854;SDS011;70272;49.222;-122.892;2023-12-20T00:26:51;4.72;;;3.22;;
80854;SDS011;70272;49.222;-122.892;2023-12-20T00:29:18;6.25;;;3.05;;
80854;SDS011;70272;49.222;-122.892;2023-12-20T00:31:44;4.40;;;2.95;;
80854;SDS011;70272;49.222;-122.892;2023-12-20T00:34:10;4.43;;;3.05;;
80854;SDS011;70272;49.222;-122.892;2023-12-20T00:36:37;4.63;;;2.90;;
80854;SDS011;70272;49.222;-122.892;2023-12-20T00:39:03;4.32;;;2.95;;
80854;SDS011;70272;49.222;-122.892;2023-12-20T00:41:29;3.75;;;2.60;;
80854;SDS011;70272;49.222;-122.892;2023-12-20T00:43:56;4.93;;;2.75;;
80854;SDS011;70272;49.222;-122.892;2023-12-20T00:46:22;5.65;;;3.40;;
80854;SDS011;70272;49.222;-122.892;2023-12-20T00:48:48;4.22;;;2.90;;
80854;SDS011;70272;49.222;-122.892;2023-12-20T00:51:14;3.67;;;2.95;;
80854;SDS011;70272;49.222;-122.892;2023-12-20T00:53:41;4.30;;;3.00;;
80854;SDS011;70272;49.222;-122.892;2023-12-20T00:56:07;5.07;;;2.85;;
80854;SDS011;70272;49.222;-122.892;2023-12-20T00:58:33;5.13;;;3.17;;
80854;SDS011;70272;49.222;-122.892;2023-12-20T01:00:59;4.88;;;2.88;;
80854;SDS011;70272;49.222;-122.892;2023-12-20T01:03:26;5.18;;;3.35;;
80854;SDS011;70272;49.222;-122.892;2023-12-20T01:05:52;6.10;;;2.80;;
80854;SDS011;70272;49.222;-122.892;2023-12-20T01:08:18;5.57;;;3.13;;
80854;SDS011;70272;49.222;-122.892;2023-12-20T01:10:45;3.78;;;2.78;;
80854;SDS011;70272;49.222;-122.892;2023-12-20T01:13:12;5.60;;;3.15;;
80854;SDS011;70272;49.222;-122.892;2023-12-20T01:15:38;5.32;;;3.28;;
80854;SDS011;70272;49.222;-122.892;2023-12-20T01:18:04;6.20;;;3.85;;
80854;SDS011;70272;49.222;-122.892;2023-12-20T01:20:31;4.63;;;3.05;;
80854;SDS011;70272;49.222;-122.892;2023-12-20T01:22:57;4.65;;;3.15;;
80854;SDS011;70272;49.222;-122.892;2023-12-20T01:25:23;4.53;;;3.10;;
80854;SDS011;70272;49.222;-122.892;2023-12-20T01:27:49;4.75;;;2.85;;
80854;SDS011;70272;49.222;-122.892;2023-12-20T01:30:16;4.90;;;3.20;;
80854;SDS011;70272;49.222;-122.892;2023-12-20T01:32:42;6.85;;;3.22;;
80854;SDS011;70272;49.222;-122.892;2023-12-20T01:35:08;4.15;;;2.60;;
80854;SDS011;70272;49.222;-122.892;2023-12-20T01:37:34;4.05;;;2.63;;
80854;SDS011;70272;49.222;-122.892;2023-12-20T01:40:01;3.75;;;2.40;;
80854;SDS011;70272;49.222;-122.892;2023-12-20T01:42:27;3.55;;;2.55;;
80854;SDS011;70272;49.222;-122.892;2023-12-20T01:44:54;6.97;;;3.17;;
80854;SDS011;70272;49.222;-122.892;2023-12-20T01:47:21;5.40;;;2.58;;
80854;SDS011;70272;49.222;-122.892;2023-12-20T01:49:48;3.03;;;2.15;;
80854;SDS011;70272;49.222;-122.892;2023-12-20T01:52:15;3.60;;;2.22;;
80854;SDS011;70272;49.222;-122.892;2023-12-20T01:54:42;7.10;;;3.28;;
80854;SDS011;70272;49.222;-122.892;2023-12-20T01:57:09;5.53;;;2.80;;
80854;SDS011;70272;49.222;-122.892;2023-12-20T01:59:35;3.63;;;2.63;;
80854;SDS011;70272;49.222;-122.892;2023-12-20T02:02:03;11.35;;;3.15;;
80854;SDS011;70272;49.222;-122.892;2023-12-20T02:04:29;5.57;;;3.13;;
80854;SDS011;70272;49.222;-122.892;2023-12-20T02:06:55;5.28;;;3.00;;
80854;SDS011;70272;49.222;-122.892;2023-12-20T02:09:22;4.65;;;2.35;;
80854;SDS011;70272;49.222;-122.892;2023-12-20T02:11:49;3.80;;;2.92;;
80854;SDS011;70272;49.222;-122.892;2023-12-20T02:14:15;10.98;;;3.72;;
80854;SDS011;70272;49.222;-122.892;2023-12-20T02:16:41;6.50;;;3.03;;
80854;SDS011;70272;49.222;-122.892;2023-12-20T02:19:09;4.18;;;2.80;;
80854;SDS011;70272;49.222;-122.892;2023-12-20T02:21:41;4.13;;;2.63;;
80854;SDS011;70272;49.222;-122.892;2023-12-20T02:24:07;3.35;;;2.47;;
80854;SDS011;70272;49.222;-122.892;2023-12-20T02:26:33;4.22;;;2.97;;
80854;SDS011;70272;49.222;-122.892;2023-12-20T02:28:59;4.57;;;2.97;;
80854;SDS011;70272;49.222;-122.892;2023-12-20T02:31:26;4.28;;;2.92;;
80854;SDS011;70272;49.222;-122.892;2023-12-20T02:33:52;5.90;;;3.80;;
80854;SDS011;70272;49.222;-122.892;2023-12-20T02:36:19;3.55;;;2.75;;
80854;SDS011;70272;49.222;-122.892;2023-12-20T02:38:45;6.47;;;3.38;;
80854;SDS011;70272;49.222;-122.892;2023-12-20T02:41:12;4.57;;;3.30;;
80854;SDS011;70272;49.222;-122.892;2023-12-20T02:43:38;5.15;;;3.30;;
80854;SDS011;70272;49.222;-122.892;2023-12-20T02:46:05;6.00;;;3.60;;
80854;SDS011;70272;49.222;-122.892;2023-12-20T02:48:31;6.20;;;3.28;;
80854;SDS011;70272;49.222;-122.892;2023-12-20T02:50:57;6.57;;;3.47;;
80854;SDS011;70272;49.222;-122.892;2023-12-20T02:53:23;4.63;;;3.15;;
80854;SDS011;70272;49.222;-122.892;2023-12-20T02:55:50;5.25;;;3.50;;
80854;SDS011;70272;49.222;-122.892;2023-12-20T02:58:16;4.38;;;3.13;;
80854;SDS011;70272;49.222;-122.892;2023-12-20T03:00:43;5.28;;;3.05;;
80854;SDS011;70272;49.222;-122.892;2023-12-20T03:03:09;4.57;;;3.08;;
80854;SDS011;70272;49.222;-122.892;2023-12-20T03:05:35;5.72;;;3.30;;
80854;SDS011;70272;49.222;-122.892;2023-12-20T03:08:02;4.47;;;2.78;;
80854;SDS011;70272;49.222;-122.892;2023-12-20T03:10:28;5.13;;;3.00;;
80854;SDS011;70272;49.222;-122.892;2023-12-20T03:12:54;5.00;;;3.17;;
80854;SDS011;70272;49.222;-122.892;2023-12-20T03:15:20;4.07;;;2.55;;
80854;SDS011;70272;49.222;-122.892;2023-12-20T03:17:47;4.03;;;2.85;;
80854;SDS011;70272;49.222;-122.892;2023-12-20T03:20:13;6.50;;;3.20;;
80854;SDS011;70272;49.222;-122.892;2023-12-20T03:22:39;3.97;;;2.88;;
80854;SDS011;70272;49.222;-122.892;2023-12-20T03:25:05;3.92;;;2.35;;
80854;SDS011;70272;49.222;-122.892;2023-12-20T03:27:32;4.38;;;2.40;;
80854;SDS011;70272;49.222;-122.892;2023-12-20T03:29:58;4.30;;;2.63;;
80854;SDS011;70272;49.222;-122.892;2023-12-20T03:32:24;7.72;;;2.85;;
80854;SDS011;70272;49.222;-122.892;2023-12-20T03:34:50;4.00;;;2.13;;
80854;SDS011;70272;49.222;-122.892;2023-12-20T03:37:17;3.00;;;2.22;;
80854;SDS011;70272;49.222;-122.892;2023-12-20T03:39:43;5.18;;;2.53;;
80854;SDS011;70272;49.222;-122.892;2023-12-20T03:42:09;3.90;;;2.85;;
80854;SDS011;70272;49.222;-122.892;2023-12-20T03:44:38;4.45;;;2.65;;
80854;SDS011;70272;49.222;-122.892;2023-12-20T03:47:05;3.70;;;2.90;;
80854;SDS011;70272;49.222;-122.892;2023-12-20T03:49:32;4.40;;;3.00;;
80854;SDS011;70272;49.222;-122.892;2023-12-20T03:51:58;5.25;;;3.33;;
80854;SDS011;70272;49.222;-122.892;2023-12-20T03:54:24;5.75;;;3.53;;
80854;SDS011;70272;49.222;-122.892;2023-12-20T03:56:51;4.47;;;3.28;;
80854;SDS011;70272;49.222;-122.892;2023-12-20T03:59:17;3.85;;;2.92;;
80854;SDS011;70272;49.222;-122.892;2023-12-20T04:01:44;3.97;;;2.58;;
80854;SDS011;70272;49.222;-122.892;2023-12-20T04:04:10;4.63;;;2.75;;
80854;SDS011;70272;49.222;-122.892;2023-12-20T04:06:37;3.95;;;2.53;;
80854;SDS011;70272;49.222;-122.892;2023-12-20T04:09:03;4.00;;;2.30;;
80854;SDS011;70272;49.222;-122.892;2023-12-20T04:11:30;3.00;;;2.08;;
80854;SDS011;70272;49.222;-122.892;2023-12-20T04:13:56;4.63;;;2.53;;
80854;SDS011;70272;49.222;-122.892;2023-12-20T04:16:22;3.05;;;2.10;;
80854;SDS011;70272;49.222;-122.892;2023-12-20T04:18:48;4.85;;;2.35;;
80854;SDS011;70272;49.222;-122.892;2023-12-20T04:21:15;5.15;;;3.22;;
80854;SDS011;70272;49.222;-122.892;2023-12-20T04:23:41;4.55;;;2.83;;
80854;SDS011;70272;49.222;-122.892;2023-12-20T04:26:07;4.88;;;3.10;;
80854;SDS011;70272;49.222;-122.892;2023-12-20T04:28:33;3.22;;;2.50;;
80854;SDS011;70272;49.222;-122.892;2023-12-20T04:31:00;3.30;;;2.35;;
80854;SDS011;70272;49.222;-122.892;2023-12-20T04:33:26;3.33;;;2.53;;
80854;SDS011;70272;49.222;-122.892;2023-12-20T04:35:52;3.42;;;2.28;;
80854;SDS011;70272;49.222;-122.892;2023-12-20T04:38:18;3.75;;;2.47;;
80854;SDS011;70272;49.222;-122.892;2023-12-20T04:40:45;4.25;;;2.65;;
80854;SDS011;70272;49.222;-122.892;2023-12-20T04:43:11;3.72;;;2.40;;
80854;SDS011;70272;49.222;-122.892;2023-12-20T04:45:37;3.28;;;2.28;;
80854;SDS011;70272;49.222;-122.892;2023-12-20T04:48:04;3.55;;;2.00;;
80854;SDS011;70272;49.222;-122.892;2023-12-20T04:50:30;3.35;;;2.45;;
80854;SDS011;70272;49.222;-122.892;2023-12-20T04:52:57;4.97;;;2.47;;
80854;SDS011;70272;49.222;-122.892;2023-12-20T04:55:23;3.10;;;2.15;;
80854;SDS011;70272;49.222;-122.892;2023-12-20T04:57:49;4.38;;;2.10;;
80854;SDS011;70272;49.222;-122.892;2023-12-20T05:00:16;3.70;;;2.20;;
80854;SDS011;70272;49.222;-122.892;2023-12-20T05:02:42;4.47;;;2.60;;
80854;SDS011;70272;49.222;-122.892;2023-12-20T05:05:08;3.70;;;2.40;;
80854;SDS011;70272;49.222;-122.892;2023-12-20T05:07:35;3.40;;;2.33;;
80854;SDS011;70272;49.222;-122.892;2023-12-20T05:10:02;3.30;;;2.58;;
80854;SDS011;70272;49.222;-122.892;2023-12-20T05:12:29;4.18;;;2.78;;
80854;SDS011;70272;49.222;-122.892;2023-12-20T05:14:56;5.07;;;2.45;;
80854;SDS011;70272;49.222;-122.892;2023-12-20T05:17:23;5.65;;;2.80;;
80854;SDS011;70272;49.222;-122.892;2023-12-20T05:19:50;3.58;;;2.70;;
80854;SDS011;70272;49.222;-122.892;2023-12-20T05:22:16;4.95;;;3.00;;
80854;SDS011;70272;49.222;-122.892;2023-12-20T05:24:42;4.03;;;2.70;;
80854;SDS011;70272;49.222;-122.892;2023-12-20T05:27:09;5.07;;;2.83;;
80854;SDS011;70272;49.222;-122.892;2023-12-20T05:29:35;5.43;;;2.78;;
80854;SDS011;70272;49.222;-122.892;2023-12-20T05:32:01;4.43;;;2.53;;
80854;SDS011;70272;49.222;-122.892;2023-12-20T05:34:30;3.65;;;2.83;;
80854;SDS011;70272;49.222;-122.892;2023-12-20T05:36:57;4.63;;;3.10;;
80854;SDS011;70272;49.222;-122.892;2023-12-20T05:39:24;3.40;;;2.60;;
80854;SDS011;70272;49.222;-122.892;2023-12-20T05:41:50;4.35;;;2.58;;
80854;SDS011;70272;49.222;-122.892;2023-12-20T05:44:16;3.13;;;2.05;;
80854;SDS011;70272;49.222;-122.892;2023-12-20T05:46:45;3.40;;;2.40;;
80854;SDS011;70272;49.222;-122.892;2023-12-20T05:49:11;5.63;;;2.90;;
80854;SDS011;70272;49.222;-122.892;2023-12-20T05:51:38;6.35;;;2.88;;
80854;SDS011;70272;49.222;-122.892;2023-12-20T05:54:05;6.40;;;3.17;;
80854;SDS011;70272;49.222;-122.892;2023-12-20T05:56:31;4.20;;;2.78;;
80854;SDS011;70272;49.222;-122.892;2023-12-20T05:58:57;11.40;;;3.45;;
80854;SDS011;70272;49.222;-122.892;2023-12-20T06:01:24;4.15;;;2.80;;
80854;SDS011;70272;49.222;-122.892;2023-12-20T06:03:50;3.53;;;2.33;;
80854;SDS011;70272;49.222;-122.892;2023-12-20T06:06:16;3.35;;;2.45;;
80854;SDS011;70272;49.222;-122.892;2023-12-20T06:08:43;3.17;;;2.20;;
80854;SDS011;70272;49.222;-122.892;2023-12-20T06:11:09;3.20;;;2.10;;
80854;SDS011;70272;49.222;-122.892;2023-12-20T06:13:35;3.05;;;2.00;;
80854;SDS011;70272;49.222;-122.892;2023-12-20T06:16:03;2.95;;;2.10;;
80854;SDS011;70272;49.222;-122.892;2023-12-20T06:18:31;2.70;;;2.03;;
80854;SDS011;70272;49.222;-122.892;2023-12-20T06:20:57;3.55;;;2.05;;
80854;SDS011;70272;49.222;-122.892;2023-12-20T06:23:23;3.95;;;2.42;;
80854;SDS011;70272;49.222;-122.892;2023-12-20T06:25:49;4.88;;;2.10;;
80854;SDS011;70272;49.222;-122.892;2023-12-20T06:28:15;5.10;;;2.17;;
80854;SDS011;70272;49.222;-122.892;2023-12-20T06:30:42;4.07;;;1.90;;
80854;SDS011;70272;49.222;-122.892;2023-12-20T06:33:08;3.70;;;2.38;;
80854;SDS011;70272;49.222;-122.892;2023-12-20T06:35:36;3.30;;;2.17;;
80854;SDS011;70272;49.222;-122.892;2023-12-20T06:38:03;3.03;;;2.10;;
80854;SDS011;70272;49.222;-122.892;2023-12-20T06:40:29;3.17;;;2.22;;
80854;SDS011;70272;49.222;-122.892;2023-12-20T06:42:55;4.10;;;2.17;;
80854;SDS011;70272;49.222;-122.892;2023-12-20T06:45:22;3.70;;;2.30;;
80854;SDS011;70272;49.222;-122.892;2023-12-20T06:47:48;2.97;;;2.20;;
80854;SDS011;70272;49.222;-122.892;2023-12-20T06:50:14;3.80;;;2.40;;
80854;SDS011;70272;49.222;-122.892;2023-12-20T06:52:41;3.67;;;2.80;;
80854;SDS011;70272;49.222;-122.892;2023-12-20T06:55:07;3.75;;;2.70;;
80854;SDS011;70272;49.222;-122.892;2023-12-20T06:57:33;4.82;;;2.75;;
80854;SDS011;70272;49.222;-122.892;2023-12-20T07:00:02;3.45;;;2.90;;
80854;SDS011;70272;49.222;-122.892;2023-12-20T07:02:28;3.85;;;2.60;;
80854;SDS011;70272;49.222;-122.892;2023-12-20T07:04:55;3.45;;;2.83;;
80854;SDS011;70272;49.222;-122.892;2023-12-20T07:07:22;4.90;;;2.90;;
80854;SDS011;70272;49.222;-122.892;2023-12-20T07:09:49;4.03;;;2.50;;
80854;SDS011;70272;49.222;-122.892;2023-12-20T07:12:15;4.15;;;2.40;;
80854;SDS011;70272;49.222;-122.892;2023-12-20T07:14:44;4.78;;;2.90;;
80854;SDS011;70272;49.222;-122.892;2023-12-20T07:17:10;3.45;;;2.40;;
80854;SDS011;70272;49.222;-122.892;2023-12-20T07:19:41;3.38;;;2.50;;
80854;SDS011;70272;49.222;-122.892;2023-12-20T07:22:07;2.80;;;2.05;;
80854;SDS011;70272;49.222;-122.892;2023-12-20T07:24:34;4.13;;;2.33;;
80854;SDS011;70272;49.222;-122.892;2023-12-20T07:27:00;3.97;;;2.67;;
80854;SDS011;70272;49.222;-122.892;2023-12-20T07:29:26;4.40;;;2.25;;
80854;SDS011;70272;49.222;-122.892;2023-12-20T07:31:53;3.30;;;2.28;;
80854;SDS011;70272;49.222;-122.892;2023-12-20T07:34:20;3.80;;;2.47;;
80854;SDS011;70272;49.222;-122.892;2023-12-20T07:36:46;3.38;;;2.15;;
80854;SDS011;70272;49.222;-122.892;2023-12-20T07:39:13;3.63;;;2.40;;
80854;SDS011;70272;49.222;-122.892;2023-12-20T07:41:40;4.10;;;2.60;;
80854;SDS011;70272;49.222;-122.892;2023-12-20T07:44:06;3.35;;;2.45;;
80854;SDS011;70272;49.222;-122.892;2023-12-20T07:46:33;4.45;;;2.15;;
80854;SDS011;70272;49.222;-122.892;2023-12-20T07:48:59;2.95;;;2.17;;
80854;SDS011;70272;49.222;-122.892;2023-12-20T07:51:25;3.10;;;2.22;;
80854;SDS011;70272;49.222;-122.892;2023-12-20T07:53:51;3.42;;;2.50;;
80854;SDS011;70272;49.222;-122.892;2023-12-20T07:56:19;3.55;;;2.45;;
80854;SDS011;70272;49.222;-122.892;2023-12-20T07:58:45;5.28;;;2.50;;
80854;SDS011;70272;49.222;-122.892;2023-12-20T08:01:13;4.03;;;2.63;;
80854;SDS011;70272;49.222;-122.892;2023-12-20T08:03:41;3.72;;;2.53;;
80854;SDS011;70272;49.222;-122.892;2023-12-20T08:06:07;3.95;;;3.03;;
80854;SDS011;70272;49.222;-122.892;2023-12-20T08:08:33;3.67;;;2.65;;
80854;SDS011;70272;49.222;-122.892;2023-12-20T08:10:59;5.00;;;2.88;;
80854;SDS011;70272;49.222;-122.892;2023-12-20T08:13:26;3.40;;;2.67;;
80854;SDS011;70272;49.222;-122.892;2023-12-20T08:15:53;3.40;;;2.50;;
80854;SDS011;70272;49.222;-122.892;2023-12-20T08:18:21;3.92;;;2.50;;
80854;SDS011;70272;49.222;-122.892;2023-12-20T08:20:48;4.10;;;2.90;;
80854;SDS011;70272;49.222;-122.892;2023-12-20T08:23:15;3.72;;;2.72;;
80854;SDS011;70272;49.222;-122.892;2023-12-20T08:25:41;3.55;;;2.50;;
80854;SDS011;70272;49.222;-122.892;2023-12-20T08:28:07;4.35;;;2.50;;
80854;SDS011;70272;49.222;-122.892;2023-12-20T08:30:34;3.25;;;2.10;;
80854;SDS011;70272;49.222;-122.892;2023-12-20T08:33:02;4.70;;;2.67;;
80854;SDS011;70272;49.222;-122.892;2023-12-20T08:35:29;3.72;;;2.42;;
80854;SDS011;70272;49.222;-122.892;2023-12-20T08:37:55;7.35;;;2.78;;
80854;SDS011;70272;49.222;-122.892;2023-12-20T08:40:21;4.72;;;2.72;;
80854;SDS011;70272;49.222;-122.892;2023-12-20T08:42:48;3.45;;;2.20;;
80854;SDS011;70272;49.222;-122.892;2023-12-20T08:45:14;3.65;;;2.10;;
80854;SDS011;70272;49.222;-122.892;2023-12-20T08:47:41;3.28;;;1.80;;
80854;SDS011;70272;49.222;-122.892;2023-12-20T08:50:09;4.35;;;2.17;;
80854;SDS011;70272;49.222;-122.892;2023-12-20T08:52:36;2.75;;;2.10;;
80854;SDS011;70272;49.222;-122.892;2023-12-20T08:55:02;3.33;;;2.30;;
80854;SDS011;70272;49.222;-122.892;2023-12-20T08:57:29;3.90;;;2.20;;
80854;SDS011;70272;49.222;-122.892;2023-12-20T08:59:57;3.83;;;2.35;;
80854;SDS011;70272;49.222;-122.892;2023-12-20T09:02:23;3.95;;;2.60;;
80854;SDS011;70272;49.222;-122.892;2023-12-20T09:04:49;3.28;;;2.00;;
80854;SDS011;70272;49.222;-122.892;2023-12-20T09:07:25;3.20;;;2.10;;
80854;SDS011;70272;49.222;-122.892;2023-12-20T09:09:52;3.25;;;2.20;;
80854;SDS011;70272;49.222;-122.892;2023-12-20T09:12:19;2.90;;;2.10;;
80854;SDS011;70272;49.222;-122.892;2023-12-20T09:14:46;3.00;;;2.05;;
80854;SDS011;70272;49.222;-122.892;2023-12-20T09:17:13;2.95;;;2.03;;
80854;SDS011;70272;49.222;-122.892;2023-12-20T09:19:39;2.83;;;1.75;;
80854;SDS011;70272;49.222;-122.892;2023-12-20T09:22:06;3.13;;;1.90;;
80854;SDS011;70272;49.222;-122.892;2023-12-20T09:24:32;2.70;;;1.80;;
80854;SDS011;70272;49.222;-122.892;2023-12-20T09:26:59;3.28;;;2.05;;
80854;SDS011;70272;49.222;-122.892;2023-12-20T09:29:28;5.15;;;2.10;;
80854;SDS011;70272;49.222;-122.892;2023-12-20T09:31:54;3.13;;;1.95;;
80854;SDS011;70272;49.222;-122.892;2023-12-20T09:34:22;3.72;;;2.08;;
80854;SDS011;70272;49.222;-122.892;2023-12-20T09:36:48;3.95;;;2.20;;
80854;SDS011;70272;49.222;-122.892;2023-12-20T09:39:15;4.20;;;2.15;;
80854;SDS011;70272;49.222;-122.892;2023-12-20T09:41:48;3.03;;;2.00;;
80854;SDS011;70272;49.222;-122.892;2023-12-20T09:44:35;2.80;;;2.00;;
80854;SDS011;70272;49.222;-122.892;2023-12-20T09:47:04;4.55;;;2.70;;
80854;SDS011;70272;49.222;-122.892;2023-12-20T09:49:31;3.53;;;2.40;;
80854;SDS011;70272;49.222;-122.892;2023-12-20T09:51:59;4.55;;;2.47;;
80854;SDS011;70272;49.222;-122.892;2023-12-20T09:54:26;5.38;;;2.63;;
80854;SDS011;70272;49.222;-122.892;2023-12-20T09:56:54;3.88;;;2.65;;
80854;SDS011;70272;49.222;-122.892;2023-12-20T09:59:20;3.67;;;2.63;;
80854;SDS011;70272;49.222;-122.892;2023-12-20T10:01:47;4.20;;;2.97;;
80854;SDS011;70272;49.222;-122.892;2023-12-20T10:04:15;4.00;;;2.83;;
80854;SDS011;70272;49.222;-122.892;2023-12-20T10:06:42;5.63;;;3.15;;
80854;SDS011;70272;49.222;-122.892;2023-12-20T10:09:09;3.83;;;2.95;;
80854;SDS011;70272;49.222;-122.892;2023-12-20T10:11:39;4.22;;;2.90;;
80854;SDS011;70272;49.222;-122.892;2023-12-20T10:14:06;4.70;;;3.20;;
80854;SDS011;70272;49.222;-122.892;2023-12-20T10:16:33;4.65;;;2.90;;
80854;SDS011;70272;49.222;-122.892;2023-12-20T10:19:00;4.55;;;3.03;;
80854;SDS011;70272;49.222;-122.892;2023-12-20T10:21:26;5.93;;;2.80;;
80854;SDS011;70272;49.222;-122.892;2023-12-20T10:23:53;4.60;;;2.65;;
80854;SDS011;70272;49.222;-122.892;2023-12-20T10:26:21;6.40;;;2.70;;
80854;SDS011;70272;49.222;-122.892;2023-12-20T10:28:51;3.97;;;2.75;;
80854;SDS011;70272;49.222;-122.892;2023-12-20T10:31:52;3.88;;;2.75;;
80854;SDS011;70272;49.222;-122.892;2023-12-20T10:34:11;4.35;;;2.92;;
80854;SDS011;70272;49.222;-122.892;2023-12-20T10:36:38;4.95;;;2.92;;
80854;SDS011;70272;49.222;-122.892;2023-12-20T10:39:04;4.68;;;3.05;;
80854;SDS011;70272;49.222;-122.892;2023-12-20T10:41:32;15.43;;;3.65;;
80854;SDS011;70272;49.222;-122.892;2023-12-20T10:44:01;5.25;;;3.13;;
80854;SDS011;70272;49.222;-122.892;2023-12-20T10:46:28;4.60;;;2.83;;
80854;SDS011;70272;49.222;-122.892;2023-12-20T10:48:55;4.60;;;3.00;;
80854;SDS011;70272;49.222;-122.892;2023-12-20T10:51:22;4.20;;;2.30;;
80854;SDS011;70272;49.222;-122.892;2023-12-20T10:53:52;3.70;;;2.47;;
80854;SDS011;70272;49.222;-122.892;2023-12-20T10:56:19;6.53;;;2.97;;
80854;SDS011;70272;49.222;-122.892;2023-12-20T10:58:49;5.90;;;2.78;;
80854;SDS011;70272;49.222;-122.892;2023-12-20T11:01:16;3.90;;;2.38;;
80854;SDS011;70272;49.222;-122.892;2023-12-20T11:03:51;4.90;;;2.75;;
80854;SDS011;70272;49.222;-122.892;2023-12-20T11:06:29;4.57;;;2.72;;
80854;SDS011;70272;49.222;-122.892;2023-12-20T11:09:24;4.80;;;3.03;;
80854;SDS011;70272;49.222;-122.892;2023-12-20T11:17:17;5.25;;;3.20;;
80854;SDS011;70272;49.222;-122.892;2023-12-20T11:22:22;5.78;;;3.15;;
80854;SDS011;70272;49.222;-122.892;2023-12-20T11:24:56;4.95;;;2.80;;
80854;SDS011;70272;49.222;-122.892;2023-12-20T11:27:25;4.93;;;2.70;;
80854;SDS011;70272;49.222;-122.892;2023-12-20T11:29:52;3.78;;;2.60;;
80854;SDS011;70272;49.222;-122.892;2023-12-20T11:32:27;4.20;;;2.65;;
80854;SDS011;70272;49.222;-122.892;2023-12-20T11:34:55;3.72;;;2.55;;
80854;SDS011;70272;49.222;-122.892;2023-12-20T11:37:25;4.15;;;2.65;;
80854;SDS011;70272;49.222;-122.892;2023-12-20T11:40:04;4.78;;;3.20;;
80854;SDS011;70272;49.222;-122.892;2023-12-20T11:42:33;3.70;;;2.53;;
80854;SDS011;70272;49.222;-122.892;2023-12-20T11:45:03;4.57;;;2.95;;
80854;SDS011;70272;49.222;-122.892;2023-12-20T11:47:30;4.97;;;2.80;;
80854;SDS011;70272;49.222;-122.892;2023-12-20T11:49:57;4.40;;;2.88;;
80854;SDS011;70272;49.222;-122.892;2023-12-20T11:52:25;5.15;;;2.60;;
80854;SDS011;70272;49.222;-122.892;2023-12-20T11:54:52;4.72;;;2.80;;
80854;SDS011;70272;49.222;-122.892;2023-12-20T11:57:18;4.38;;;3.10;;
80854;SDS011;70272;49.222;-122.892;2023-12-20T11:59:45;7.50;;;3.75;;
80854;SDS011;70272;49.222;-122.892;2023-12-20T12:02:14;5.22;;;3.15;;
80854;SDS011;70272;49.222;-122.892;2023-12-20T12:04:43;5.03;;;3.22;;
80854;SDS011;70272;49.222;-122.892;2023-12-20T12:07:09;5.05;;;3.30;;
80854;SDS011;70272;49.222;-122.892;2023-12-20T12:09:35;4.35;;;3.13;;
80854;SDS011;70272;49.222;-122.892;2023-12-20T12:12:02;7.03;;;6.22;;
80854;SDS011;70272;49.222;-122.892;2023-12-20T12:14:28;5.45;;;4.40;;
80854;SDS011;70272;49.222;-122.892;2023-12-20T12:16:55;6.38;;;3.70;;
80854;SDS011;70272;49.222;-122.892;2023-12-20T12:19:24;7.40;;;3.97;;
80854;SDS011;70272;49.222;-122.892;2023-12-20T12:21:51;4.47;;;3.30;;
80854;SDS011;70272;49.222;-122.892;2023-12-20T12:24:35;5.15;;;3.20;;
80854;SDS011;70272;49.222;-122.892;2023-12-20T12:27:08;5.25;;;3.30;;
80854;SDS011;70272;49.222;-122.892;2023-12-20T12:29:35;6.10;;;3.70;;
80854;SDS011;70272;49.222;-122.892;2023-12-20T12:32:05;5.55;;;3.00;;
80854;SDS011;70272;49.222;-122.892;2023-12-20T12:34:33;5.22;;;3.78;;
80854;SDS011;70272;49.222;-122.892;2023-12-20T12:37:00;6.32;;;3.53;;
80854;SDS011;70272;49.222;-122.892;2023-12-20T12:39:26;4.78;;;3.08;;
80854;SDS011;70272;49.222;-122.892;2023-12-20T12:41:52;5.65;;;3.45;;
80854;SDS011;70272;49.222;-122.892;2023-12-20T12:44:19;5.32;;;3.33;;
80854;SDS011;70272;49.222;-122.892;2023-12-20T12:46:46;5.82;;;3.25;;
80854;SDS011;70272;49.222;-122.892;2023-12-20T12:49:12;6.13;;;3.95;;
80854;SDS011;70272;49.222;-122.892;2023-12-20T12:51:38;7.40;;;3.85;;
80854;SDS011;70272;49.222;-122.892;2023-12-20T12:54:05;6.35;;;4.00;;
80854;SDS011;70272;49.222;-122.892;2023-12-20T12:56:31;7.40;;;3.60;;
80854;SDS011;70272;49.222;-122.892;2023-12-20T12:58:57;6.63;;;3.45;;
80854;SDS011;70272;49.222;-122.892;2023-12-20T13:01:24;7.18;;;3.50;;
80854;SDS011;70272;49.222;-122.892;2023-12-20T13:03:50;7.97;;;3.70;;
80854;SDS011;70272;49.222;-122.892;2023-12-20T13:06:16;5.72;;;3.80;;
80854;SDS011;70272;49.222;-122.892;2023-12-20T13:08:42;6.78;;;4.03;;
80854;SDS011;70272;49.222;-122.892;2023-12-20T13:11:09;6.13;;;4.05;;
80854;SDS011;70272;49.222;-122.892;2023-12-20T13:13:36;5.50;;;3.75;;
80854;SDS011;70272;49.222;-122.892;2023-12-20T13:16:02;5.47;;;3.65;;
80854;SDS011;70272;49.222;-122.892;2023-12-20T13:18:29;6.75;;;3.90;;
80854;SDS011;70272;49.222;-122.892;2023-12-20T13:20:55;6.38;;;4.28;;
80854;SDS011;70272;49.222;-122.892;2023-12-20T13:23:21;7.20;;;4.18;;
80854;SDS011;70272;49.222;-122.892;2023-12-20T13:25:48;6.35;;;4.03;;
80854;SDS011;70272;49.222;-122.892;2023-12-20T13:28:14;6.03;;;4.05;;
80854;SDS011;70272;49.222;-122.892;2023-12-20T13:30:40;8.80;;;4.82;;
80854;SDS011;70272;49.222;-122.892;2023-12-20T13:33:07;7.68;;;4.72;;
80854;SDS011;70272;49.222;-122.892;2023-12-20T13:35:33;10.75;;;5.78;;
80854;SDS011;70272;49.222;-122.892;2023-12-20T13:38:00;9.43;;;5.82;;
80854;SDS011;70272;49.222;-122.892;2023-12-20T13:40:26;9.63;;;4.78;;
80854;SDS011;70272;49.222;-122.892;2023-12-20T13:42:53;9.77;;;5.28;;
80854;SDS011;70272;49.222;-122.892;2023-12-20T13:45:20;12.65;;;5.65;;
80854;SDS011;70272;49.222;-122.892;2023-12-20T13:47:47;8.88;;;5.72;;
80854;SDS011;70272;49.222;-122.892;2023-12-20T13:50:14;9.43;;;5.75;;
80854;SDS011;70272;49.222;-122.892;2023-12-20T13:52:41;10.38;;;5.60;;
80854;SDS011;70272;49.222;-122.892;2023-12-20T13:55:07;11.07;;;5.85;;
80854;SDS011;70272;49.222;-122.892;2023-12-20T13:57:35;10.60;;;5.03;;
80854;SDS011;70272;49.222;-122.892;2023-12-20T14:00:03;10.60;;;5.85;;
80854;SDS011;70272;49.222;-122.892;2023-12-20T14:02:30;9.18;;;4.95;;
80854;SDS011;70272;49.222;-122.892;2023-12-20T14:04:56;7.70;;;4.50;;
80854;SDS011;70272;49.222;-122.892;2023-12-20T14:07:23;7.60;;;4.50;;
80854;SDS011;70272;49.222;-122.892;2023-12-20T14:09:49;9.65;;;5.75;;
80854;SDS011;70272;49.222;-122.892;2023-12-20T14:12:15;11.23;;;5.30;;
80854;SDS011;70272;49.222;-122.892;2023-12-20T14:14:41;13.50;;;4.93;;